Time;durP1;ratioP1;P1;durP2;ratioP2;P2;SDS_P1;SDS_P2;PMS_P1;PMS_P2;Temp;Humidity;BMP_temperature;BMP_pressure;BME280_temperature;BME280_humidity;BME280_pressure;Samples;Min_cycle;Max_cycle;Signal;HPM_P1;HPM_P2
2022/05/07 00:01:26;;;;;;;5.37;4.77;;;14.80;97.00;;;;;;5063240;28;20669;-70
2022/05/07 00:03:53;;;;;;;8.33;5.70;;;14.90;97.10;;;;;;5091158;28;20216;-70
2022/05/07 00:06:20;;;;;;;9.33;5.47;;;14.80;97.10;;;;;;5063821;28;20236;-70
2022/05/07 00:08:47;;;;;;;6.17;4.87;;;14.80;97.10;;;;;;5072541;28;20216;-70
2022/05/07 00:11:20;;;;;;;5.27;4.70;;;14.80;97.00;;;;;;5064398;28;20202;-70
2022/05/07 00:13:50;;;;;;;6.07;4.53;;;14.80;97.10;;;;;;5087268;28;20207;-70
2022/05/07 00:19:03;;;;;;;6.77;5.03;;;14.80;97.10;;;;;;5056885;28;20205;-70
2022/05/07 00:21:30;;;;;;;5.60;4.33;;;14.90;97.10;;;;;;5098403;28;20221;-70
2022/05/07 00:23:57;;;;;;;5.17;4.67;;;14.80;97.10;;;;;;5091217;28;20226;-70
2022/05/07 00:26:25;;;;;;;6.17;4.03;;;14.90;97.10;;;;;;5073131;28;20367;-70
2022/05/07 00:28:52;;;;;;;5.30;4.80;;;14.90;97.00;;;;;;5059344;28;20317;-70
2022/05/07 00:31:19;;;;;;;7.17;5.40;;;14.90;97.00;;;;;;5076704;28;20205;-70
2022/05/07 00:33:46;;;;;;;5.20;4.80;;;14.80;96.90;;;;;;5090083;28;20301;-70
2022/05/07 00:36:13;;;;;;;6.27;4.43;;;14.80;96.90;;;;;;5067307;28;20260;-70
2022/05/07 00:38:40;;;;;;;5.70;4.30;;;14.80;97.00;;;;;;5069561;28;20637;-70
2022/05/07 00:41:07;;;;;;;8.13;4.57;;;14.80;96.90;;;;;;5080714;28;20209;-70
2022/05/07 00:43:37;;;;;;;7.63;4.77;;;14.80;96.90;;;;;;5061910;28;20558;-70
2022/05/07 00:46:05;;;;;;;5.00;4.10;;;14.80;97.00;;;;;;5070105;28;20220;-70
2022/05/07 00:48:33;;;;;;;4.83;4.30;;;14.80;97.00;;;;;;5093428;28;20205;-70
2022/05/07 00:53:47;;;;;;;5.70;4.20;;;14.80;97.00;;;;;;5071557;28;20215;-70
2022/05/07 00:56:15;;;;;;;5.40;4.20;;;14.90;97.00;;;;;;5081970;28;20208;-70
2022/05/07 00:58:43;;;;;;;6.73;4.13;;;14.90;97.00;;;;;;5060224;28;20217;-70
2022/05/07 01:01:12;;;;;;;8.07;4.93;;;14.90;96.90;;;;;;5046908;28;20224;-70
2022/05/07 01:03:39;;;;;;;5.57;4.23;;;14.90;96.80;;;;;;5094304;28;20295;-70
2022/05/07 01:06:09;;;;;;;7.10;4.57;;;14.90;96.80;;;;;;5061084;28;20315;-70
2022/05/07 01:08:37;;;;;;;7.27;4.90;;;14.90;96.80;;;;;;5097532;28;20220;-70
2022/05/07 01:11:04;;;;;;;7.10;5.50;;;14.90;96.80;;;;;;5094457;28;20713;-70
2022/05/07 01:13:32;;;;;;;7.23;5.03;;;14.90;96.80;;;;;;5061029;28;20664;-70
2022/05/07 01:16:00;;;;;;;5.90;5.30;;;14.90;96.80;;;;;;5062966;28;20238;-70
2022/05/07 01:18:32;;;;;;;11.17;6.27;;;14.90;96.80;;;;;;5062891;28;20716;-70
2022/05/07 01:21:14;;;;;;;6.33;5.57;;;14.90;96.80;;;;;;5072044;28;20650;-70
2022/05/07 01:23:44;;;;;;;8.23;5.30;;;14.90;96.80;;;;;;5061090;28;20209;-70
2022/05/07 01:26:12;;;;;;;7.10;5.37;;;14.80;96.80;;;;;;5064921;28;20236;-70
2022/05/07 01:28:40;;;;;;;5.60;5.03;;;14.80;96.70;;;;;;5072668;28;20235;-70
2022/05/07 01:31:09;;;;;;;8.70;5.27;;;14.80;96.70;;;;;;5093955;28;20651;-70
2022/05/07 01:33:37;;;;;;;5.73;5.23;;;14.80;96.80;;;;;;5095936;28;20203;-70
2022/05/07 01:36:11;;;;;;;8.27;6.00;;;14.80;96.90;;;;;;5092185;28;20225;-70
2022/05/07 01:38:40;;;;;;;8.60;6.50;;;14.80;97.00;;;;;;5074864;28;20210;-70
2022/05/07 01:41:08;;;;;;;8.47;6.10;;;14.70;97.00;;;;;;5072077;28;20742;-70
2022/05/07 01:43:37;;;;;;;9.60;6.27;;;14.70;97.00;;;;;;5083168;28;20238;-70
2022/05/07 01:48:09;;;;;;;10.93;6.80;;;14.70;97.00;;;;;;5071185;28;20231;-70
2022/05/07 01:48:52;;;;;;;8.47;7.07;;;14.70;97.10;;;;;;5077755;28;20641;-70
2022/05/07 01:51:20;;;;;;;7.23;5.93;;;14.70;97.10;;;;;;5058924;28;20200;-70
2022/05/07 01:53:48;;;;;;;7.73;6.70;;;14.70;97.20;;;;;;5086043;28;20571;-70
2022/05/07 01:56:16;;;;;;;7.07;6.30;;;14.70;97.20;;;;;;5058541;28;20240;-70
2022/05/07 01:58:46;;;;;;;7.43;6.43;;;14.70;97.20;;;;;;5067795;28;20542;-70
2022/05/07 02:01:15;;;;;;;7.67;6.80;;;14.60;97.20;;;;;;5085393;28;20221;-70
2022/05/07 02:03:42;;;;;;;9.07;5.70;;;14.70;97.30;;;;;;5054970;28;20538;-70
2022/05/07 02:06:10;;;;;;;10.60;6.50;;;14.70;97.30;;;;;;5066079;28;20225;-70
2022/05/07 02:08:38;;;;;;;11.70;6.20;;;14.70;97.30;;;;;;5063701;28;20715;-70
2022/05/07 02:11:12;;;;;;;7.50;6.10;;;14.70;97.30;;;;;;5090165;28;20216;-70
2022/05/07 02:13:39;;;;;;;7.60;6.53;;;14.70;97.30;;;;;;5072676;28;20309;-70
2022/05/07 02:16:06;;;;;;;9.33;6.03;;;14.70;97.20;;;;;;5062392;28;20223;-70
2022/05/07 02:18:34;;;;;;;10.23;6.47;;;14.70;97.20;;;;;;5089499;28;20224;-70
2022/05/07 02:21:01;;;;;;;8.23;5.67;;;14.70;97.20;;;;;;5085870;28;20315;-70
2022/05/07 02:23:28;;;;;;;7.27;6.00;;;14.70;97.20;;;;;;5065018;28;20667;-70
2022/05/07 02:25:55;;;;;;;9.87;6.70;;;14.70;97.30;;;;;;5072100;28;20229;-70
2022/05/07 02:28:22;;;;;;;8.93;7.07;;;14.70;97.20;;;;;;5063546;28;20247;-70
2022/05/07 02:30:51;;;;;;;9.03;5.70;;;14.70;97.20;;;;;;5086000;28;20216;-70
2022/05/07 02:33:18;;;;;;;8.30;6.10;;;14.70;97.10;;;;;;5073865;28;20273;-70
2022/05/07 02:35:46;;;;;;;13.23;7.40;;;14.70;97.10;;;;;;5072260;28;20208;-70
2022/05/07 02:38:13;;;;;;;8.00;6.77;;;14.80;97.10;;;;;;5066794;28;20196;-70
2022/05/07 02:43:34;;;;;;;9.97;6.37;;;14.70;97.00;;;;;;5099772;28;20594;-70
2022/05/07 02:46:09;;;;;;;10.67;6.67;;;14.70;97.10;;;;;;5074524;28;20220;-70
2022/05/07 02:48:38;;;;;;;8.10;6.83;;;14.70;97.10;;;;;;5098706;28;20225;-70
2022/05/07 02:51:08;;;;;;;9.10;6.93;;;14.70;97.20;;;;;;5075694;28;20212;-70
2022/05/07 02:53:35;;;;;;;12.13;7.70;;;14.60;97.30;;;;;;5076454;28;20211;-70
2022/05/07 02:56:02;;;;;;;8.60;7.70;;;14.60;97.40;;;;;;5092530;28;20627;-70
2022/05/07 02:58:30;;;;;;;8.90;7.67;;;14.60;97.40;;;;;;5071412;28;20216;-70
2022/05/07 03:00:57;;;;;;;12.63;7.80;;;14.60;97.50;;;;;;5078077;28;20230;-70
2022/05/07 03:03:25;;;;;;;11.43;8.50;;;14.60;97.50;;;;;;5071654;28;20238;-70
2022/05/07 03:05:59;;;;;;;13.33;8.77;;;14.60;97.60;;;;;;5078250;28;20516;-70
2022/05/07 03:08:27;;;;;;;11.03;9.10;;;14.60;97.60;;;;;;5064512;28;20216;-70
2022/05/07 03:10:54;;;;;;;12.60;9.20;;;14.60;97.60;;;;;;5106967;28;20281;-70
2022/05/07 03:13:21;;;;;;;13.87;9.57;;;14.60;97.70;;;;;;5076582;28;20649;-70
2022/05/07 03:15:48;;;;;;;13.17;9.57;;;14.60;97.70;;;;;;5091358;28;20232;-70
2022/05/07 03:18:16;;;;;;;13.50;9.67;;;14.60;97.70;;;;;;5069187;28;20240;-70
2022/05/07 03:20:43;;;;;;;12.47;8.97;;;14.60;97.70;;;;;;5072807;28;20213;-70
2022/05/07 03:23:17;;;;;;;16.10;9.87;;;14.60;97.80;;;;;;5075986;28;20248;-70
2022/05/07 03:25:46;;;;;;;11.93;9.53;;;14.60;97.70;;;;;;5058209;28;20302;-70
2022/05/07 03:28:13;;;;;;;15.47;10.67;;;14.60;97.80;;;;;;5076156;28;20298;-70
2022/05/07 03:30:40;;;;;;;12.43;10.20;;;14.70;97.80;;;;;;5074324;28;20265;-70
2022/05/07 03:33:08;;;;;;;13.00;10.43;;;14.60;97.70;;;;;;5069414;28;20203;-70
2022/05/07 03:35:39;;;;;;;13.67;10.53;;;14.70;97.80;;;;;;5104956;28;20671;-70
2022/05/07 03:38:06;;;;;;;14.20;10.83;;;14.70;97.80;;;;;;5076786;28;20234;-70
2022/05/07 03:40:43;;;;;;;12.70;10.90;;;14.70;97.70;;;;;;5071244;28;20645;-70
2022/05/07 03:43:10;;;;;;;12.80;11.20;;;14.70;97.70;;;;;;5058885;28;20621;-70
2022/05/07 03:45:37;;;;;;;14.07;11.03;;;14.70;97.70;;;;;;5066049;28;20260;-70
2022/05/07 03:48:05;;;;;;;14.73;12.00;;;14.70;97.70;;;;;;5082009;28;20205;-70
2022/05/07 03:50:32;;;;;;;14.27;11.07;;;14.70;97.70;;;;;;5065437;28;20615;-70
2022/05/07 03:55:46;;;;;;;14.90;11.90;;;14.80;97.70;;;;;;5065370;28;20241;-70
2022/05/07 03:58:25;;;;;;;17.03;12.13;;;14.80;97.70;;;;;;5060932;28;20285;-70
2022/05/07 04:00:57;;;;;;;16.53;11.83;;;14.80;97.60;;;;;;5076476;28;20261;-70
2022/05/07 04:03:27;;;;;;;14.10;12.37;;;14.80;97.60;;;;;;5075796;28;20211;-70
2022/05/07 04:05:57;;;;;;;15.90;13.30;;;14.90;97.60;;;;;;5072757;28;20232;-70
2022/05/07 04:08:25;;;;;;;18.77;13.20;;;14.90;97.50;;;;;;5053268;28;20267;-70
2022/05/07 04:10:53;;;;;;;18.70;12.47;;;14.90;97.40;;;;;;5068791;28;20533;-70
2022/05/07 04:13:24;;;;;;;20.20;14.07;;;14.90;97.40;;;;;;5075811;28;20621;-70
2022/05/07 04:15:55;;;;;;;15.83;13.17;;;14.90;97.40;;;;;;5073613;28;20649;-70
2022/05/07 04:18:25;;;;;;;17.43;14.13;;;14.80;97.40;;;;;;5063758;28;20237;-70
2022/05/07 04:20:55;;;;;;;17.00;13.23;;;14.80;97.40;;;;;;5067019;28;20219;-70
2022/05/07 04:23:23;;;;;;;18.67;13.10;;;14.80;97.40;;;;;;5093114;28;20242;-70
2022/05/07 04:25:53;;;;;;;17.33;13.20;;;14.80;97.40;;;;;;5084691;28;20706;-70
2022/05/07 04:28:22;;;;;;;18.63;14.50;;;14.80;97.40;;;;;;5075786;28;20223;-70
2022/05/07 04:30:51;;;;;;;21.40;15.87;;;14.80;97.50;;;;;;5082050;28;20830;-70
2022/05/07 04:33:26;;;;;;;28.27;16.67;;;14.80;97.60;;;;;;5059047;28;20202;-70
2022/05/07 04:35:58;;;;;;;21.87;15.13;;;14.80;97.60;;;;;;5081466;28;20302;-70
2022/05/07 04:38:26;;;;;;;20.57;15.67;;;14.80;97.60;;;;;;5042646;28;20629;-70
2022/05/07 04:40:54;;;;;;;21.80;16.70;;;14.90;97.70;;;;;;5084819;28;20286;-70
2022/05/07 04:43:27;;;;;;;25.60;18.17;;;14.90;97.70;;;;;;5090384;28;20247;-70
2022/05/07 04:45:55;;;;;;;25.17;19.47;;;14.90;97.70;;;;;;5099748;28;20237;-70
2022/05/07 04:48:25;;;;;;;28.20;19.57;;;14.90;97.70;;;;;;5084475;28;20297;-70
2022/05/07 04:50:52;;;;;;;27.70;21.07;;;14.90;97.60;;;;;;5083995;28;20230;-70
2022/05/07 04:53:40;;;;;;;30.23;20.90;;;14.90;97.60;;;;;;5091262;28;20299;-70
2022/05/07 04:56:15;;;;;;;30.80;20.90;;;14.90;97.70;;;;;;5099340;28;20238;-70
2022/05/07 04:58:52;;;;;;;31.93;21.43;;;14.90;97.70;;;;;;5079473;28;20302;-70
2022/05/07 05:01:26;;;;;;;34.90;23.03;;;14.90;97.70;;;;;;5080275;28;20661;-70
2022/05/07 05:03:53;;;;;;;35.40;23.50;;;14.90;97.80;;;;;;5056870;28;20306;-70
2022/05/07 05:06:26;;;;;;;34.57;23.60;;;14.90;97.80;;;;;;5075108;28;20285;-70
2022/05/07 05:08:59;;;;;;;36.50;23.33;;;14.90;97.80;;;;;;5075669;28;20208;-70
2022/05/07 05:11:26;;;;;;;34.60;24.57;;;14.90;97.80;;;;;;5072768;28;20326;-70
2022/05/07 05:13:54;;;;;;;37.47;25.60;;;14.90;97.80;;;;;;5073553;28;20223;-70
2022/05/07 05:16:24;;;;;;;35.87;25.70;;;14.90;97.80;;;;;;5065283;28;20219;-70
2022/05/07 05:18:57;;;;;;;38.67;25.67;;;14.90;97.80;;;;;;5068560;28;20637;-70
2022/05/07 05:21:25;;;;;;;38.10;27.67;;;14.90;97.80;;;;;;5072529;28;20211;-70
2022/05/07 05:24:08;;;;;;;42.80;28.70;;;14.90;97.80;;;;;;5088664;28;20310;-70
2022/05/07 05:26:37;;;;;;;43.77;29.80;;;14.90;97.80;;;;;;5066194;28;20229;-70
2022/05/07 05:29:10;;;;;;;44.07;29.90;;;14.90;97.80;;;;;;5058413;28;20235;-70
2022/05/07 05:31:37;;;;;;;43.40;28.83;;;15.00;97.90;;;;;;5072850;28;20259;-70
2022/05/07 05:34:14;;;;;;;45.00;29.77;;;14.90;97.90;;;;;;5073405;28;20233;-70
2022/05/07 05:36:48;;;;;;;40.33;29.13;;;15.00;97.90;;;;;;5059091;28;20220;-70
2022/05/07 05:39:16;;;;;;;45.73;31.00;;;15.00;97.70;;;;;;5073318;28;20238;-70
2022/05/07 05:41:45;;;;;;;40.97;30.33;;;15.00;97.70;;;;;;5065148;28;20205;-70
2022/05/07 05:44:14;;;;;;;47.20;31.93;;;15.00;97.70;;;;;;5071551;28;20205;-70
2022/05/07 05:46:42;;;;;;;47.47;31.23;;;15.00;97.70;;;;;;5084322;28;20257;-70
2022/05/07 05:49:10;;;;;;;44.80;30.30;;;15.10;97.70;;;;;;5090355;28;20219;-70
2022/05/07 05:51:39;;;;;;;48.00;32.03;;;15.10;97.70;;;;;;5091573;28;20650;-70
2022/05/07 05:54:07;;;;;;;45.57;31.53;;;15.10;97.70;;;;;;5074721;28;20214;-70
2022/05/07 05:56:34;;;;;;;46.93;32.77;;;15.20;97.60;;;;;;5100637;28;20207;-70
2022/05/07 05:59:03;;;;;;;44.87;31.47;;;15.20;97.40;;;;;;5090561;28;20292;-70
2022/05/07 06:01:38;;;;;;;48.50;33.60;;;15.30;97.30;;;;;;5072611;28;20210;-70
2022/05/07 06:04:12;;;;;;;47.43;33.33;;;15.30;97.30;;;;;;5072960;28;20303;-70
2022/05/07 06:06:39;;;;;;;46.30;33.37;;;15.30;97.30;;;;;;5100645;28;20225;-70
2022/05/07 06:09:07;;;;;;;45.83;31.83;;;15.30;97.30;;;;;;5071174;28;20214;-70
2022/05/07 06:11:35;;;;;;;47.83;33.00;;;15.40;97.30;;;;;;5073013;28;20323;-70
2022/05/07 06:14:04;;;;;;;46.47;32.27;;;15.40;97.20;;;;;;5074935;28;20217;-70
2022/05/07 06:16:31;;;;;;;43.03;31.27;;;15.50;97.10;;;;;;5077560;28;20213;-70
2022/05/07 06:19:05;;;;;;;42.00;30.87;;;15.50;97.00;;;;;;5074627;28;20239;-70
2022/05/07 06:21:33;;;;;;;43.30;31.13;;;15.60;97.00;;;;;;5072802;28;20218;-70
2022/05/07 06:27:28;;;;;;;43.33;32.63;;;15.60;96.90;;;;;;5072884;28;20308;-70
2022/05/07 06:29:34;;;;;;;37.87;28.27;;;15.60;96.60;;;;;;5073056;28;20284;-70
2022/05/07 06:32:02;;;;;;;43.50;31.23;;;15.60;96.50;;;;;;5083080;28;20295;-70
2022/05/07 06:34:30;;;;;;;38.33;30.47;;;15.70;96.40;;;;;;5077688;28;20211;-70
2022/05/07 06:36:58;;;;;;;41.73;30.77;;;15.70;96.30;;;;;;5100008;28;20213;-70
2022/05/07 06:39:28;;;;;;;38.80;29.83;;;15.70;96.20;;;;;;5065282;28;20286;-70
2022/05/07 06:41:56;;;;;;;44.47;32.10;;;15.70;96.20;;;;;;5076971;28;20364;-70
2022/05/07 06:44:23;;;;;;;38.30;29.33;;;15.70;96.30;;;;;;5075265;28;20816;-70
2022/05/07 06:46:51;;;;;;;41.73;31.30;;;15.70;96.20;;;;;;5086219;28;20233;-70
2022/05/07 06:49:18;;;;;;;40.43;29.80;;;15.70;96.40;;;;;;5075461;28;20613;-70
2022/05/07 06:51:52;;;;;;;41.07;31.27;;;15.70;96.00;;;;;;5076591;28;20239;-70
2022/05/07 06:54:19;;;;;;;36.83;29.27;;;15.70;96.00;;;;;;5080344;28;20204;-70
2022/05/07 06:56:47;;;;;;;36.57;29.20;;;15.70;96.20;;;;;;5076973;28;20212;-70
2022/05/07 06:59:14;;;;;;;35.57;28.03;;;15.70;96.30;;;;;;5073570;28;20213;-70
2022/05/07 07:01:41;;;;;;;37.87;29.37;;;15.70;96.20;;;;;;5080577;28;20295;-70
2022/05/07 07:04:08;;;;;;;41.47;28.60;;;15.70;96.10;;;;;;5090397;28;20208;-70
2022/05/07 07:06:36;;;;;;;38.83;28.53;;;15.70;96.10;;;;;;5083423;28;20217;-70
2022/05/07 07:09:03;;;;;;;40.50;27.93;;;15.70;96.10;;;;;;5089461;28;20192;-70
2022/05/07 07:11:31;;;;;;;40.37;28.83;;;15.70;96.10;;;;;;5062002;28;20618;-70
2022/05/07 07:13:58;;;;;;;39.70;30.33;;;15.70;96.10;;;;;;5073380;28;20212;-70
2022/05/07 07:16:25;;;;;;;37.50;27.83;;;15.70;96.30;;;;;;5061334;28;20213;-70
2022/05/07 07:18:53;;;;;;;31.97;26.77;;;15.70;96.30;;;;;;5088074;28;20251;-70
2022/05/07 07:21:20;;;;;;;37.40;26.63;;;15.80;96.40;;;;;;5093286;28;20206;-70
2022/05/07 07:23:48;;;;;;;36.20;26.00;;;15.80;96.30;;;;;;5075746;28;20641;-70
2022/05/07 07:26:17;;;;;;;33.50;25.73;;;15.80;96.30;;;;;;5075474;28;20205;-70
2022/05/07 07:28:44;;;;;;;34.37;26.50;;;15.90;96.20;;;;;;5085327;28;20220;-70
2022/05/07 07:31:11;;;;;;;33.97;25.90;;;15.90;96.20;;;;;;5093399;28;20560;-70
2022/05/07 07:33:39;;;;;;;35.57;26.47;;;15.90;96.20;;;;;;5086571;28;20258;-70
2022/05/07 07:36:08;;;;;;;31.50;24.30;;;16.00;96.10;;;;;;5074991;28;20212;-70
2022/05/07 07:38:37;;;;;;;33.17;23.43;;;16.00;96.10;;;;;;5085944;28;20205;-70
2022/05/07 07:41:06;;;;;;;27.53;23.03;;;16.00;96.00;;;;;;5075485;28;20220;-70
2022/05/07 07:43:33;;;;;;;29.70;23.57;;;16.10;96.00;;;;;;5085329;28;20225;-70
2022/05/07 07:48:46;;;;;;;27.73;22.43;;;16.20;95.80;;;;;;5065298;28;20220;-70
2022/05/07 07:51:13;;;;;;;28.53;21.47;;;16.10;95.60;;;;;;5077530;28;20287;-70
2022/05/07 07:53:42;;;;;;;31.77;21.70;;;16.20;95.50;;;;;;5076350;28;20212;-70
2022/05/07 07:56:09;;;;;;;26.53;21.47;;;16.20;95.50;;;;;;5074558;28;20213;-70
2022/05/07 07:58:36;;;;;;;27.57;21.27;;;16.20;95.70;;;;;;5084301;28;20202;-70
2022/05/07 08:01:03;;;;;;;31.73;22.13;;;16.30;95.60;;;;;;5077584;28;20209;-70
2022/05/07 08:03:30;;;;;;;24.50;19.00;;;16.30;95.60;;;;;;5082602;28;20195;-70
2022/05/07 08:05:57;;;;;;;22.37;18.30;;;16.40;95.50;;;;;;5078263;28;20201;-70
2022/05/07 08:13:56;;;;;;;21.37;17.57;;;16.40;95.10;;;;;;5065977;28;20217;-70
2022/05/07 08:16:24;;;;;;;23.93;18.47;;;16.50;95.00;;;;;;5104840;28;20215;-70
2022/05/07 08:18:52;;;;;;;24.60;19.63;;;16.50;94.70;;;;;;5069027;28;20216;-70
2022/05/07 08:21:20;;;;;;;22.83;17.60;;;16.50;94.80;;;;;;5099893;28;20230;-70
2022/05/07 08:23:47;;;;;;;21.90;17.00;;;16.60;94.70;;;;;;5087132;28;20645;-70
2022/05/07 08:26:14;;;;;;;20.93;16.27;;;16.70;94.50;;;;;;5077793;28;20216;-70
2022/05/07 08:28:41;;;;;;;20.30;15.83;;;16.70;94.30;;;;;;5080788;28;20539;-70
2022/05/07 08:31:12;;;;;;;22.33;16.10;;;16.80;93.80;;;;;;5091281;28;20201;-70
2022/05/07 08:33:41;;;;;;;22.13;16.80;;;16.90;93.90;;;;;;5087213;28;20209;-70
2022/05/07 08:36:10;;;;;;;20.87;16.17;;;17.00;94.10;;;;;;5077180;28;20231;-70
2022/05/07 08:38:38;;;;;;;18.83;15.70;;;17.10;94.20;;;;;;5062255;28;20236;-70
2022/05/07 08:41:05;;;;;;;21.50;17.80;;;17.20;93.40;;;;;;5068503;28;20202;-70
2022/05/07 08:43:38;;;;;;;19.97;15.47;;;17.20;93.60;;;;;;5079592;28;20281;-70
2022/05/07 08:46:10;;;;;;;17.53;15.73;;;17.30;93.50;;;;;;5074220;28;20287;-70
2022/05/07 08:48:42;;;;;;;18.23;15.77;;;17.40;93.70;;;;;;5079230;28;20611;-70
2022/05/07 08:51:09;;;;;;;19.20;14.50;;;17.50;93.50;;;;;;5078591;28;20201;-70
2022/05/07 08:53:36;;;;;;;17.63;15.67;;;17.60;92.80;;;;;;5069914;28;20542;-70
2022/05/07 08:56:04;;;;;;;19.27;16.20;;;17.60;92.80;;;;;;5082426;28;20371;-70
2022/05/07 08:58:31;;;;;;;16.13;14.53;;;17.70;93.10;;;;;;5075715;28;20239;-70
2022/05/07 09:01:00;;;;;;;20.17;14.57;;;17.90;92.60;;;;;;5085325;28;20240;-70
2022/05/07 09:03:42;;;;;;;17.87;13.87;;;18.00;92.20;;;;;;5078208;28;20218;-70
2022/05/07 09:06:26;;;;;;;15.20;13.60;;;18.10;91.90;;;;;;5065698;28;20630;-70
2022/05/07 09:08:55;;;;;;;15.03;13.47;;;18.30;91.70;;;;;;5082581;28;20276;-70
2022/05/07 09:11:23;;;;;;;15.00;13.40;;;18.40;91.30;;;;;;5084994;28;20289;-70
2022/05/07 09:14:06;;;;;;;14.13;12.27;;;18.50;90.80;;;;;;5060252;28;20665;-70
2022/05/07 09:16:46;;;;;;;17.03;12.77;;;18.50;91.00;;;;;;5100599;28;20267;-70
2022/05/07 09:19:31;;;;;;;13.47;12.07;;;18.60;90.90;;;;;;5079857;28;20195;-70
2022/05/07 09:22:06;;;;;;;12.93;11.53;;;18.70;90.60;;;;;;5089737;28;20275;-70
2022/05/07 09:24:34;;;;;;;13.67;11.83;;;18.70;90.60;;;;;;5069202;28;20427;-70
2022/05/07 09:27:03;;;;;;;13.53;12.13;;;18.70;90.80;;;;;;5077527;28;20297;-70
2022/05/07 09:29:33;;;;;;;17.57;12.07;;;18.70;90.40;;;;;;5084326;28;20286;-70
2022/05/07 09:32:14;;;;;;;13.97;11.93;;;18.80;89.70;;;;;;5042948;28;20234;-70
2022/05/07 09:37:37;;;;;;;12.10;10.03;;;18.60;90.50;;;;;;5075945;28;20208;-70
2022/05/07 09:40:09;;;;;;;13.73;10.70;;;18.60;90.50;;;;;;5067509;28;20268;-70
2022/05/07 09:42:39;;;;;;;11.93;10.70;;;18.70;90.10;;;;;;5099082;28;20209;-70
2022/05/07 09:45:07;;;;;;;10.97;9.87;;;18.80;90.50;;;;;;5072567;28;20237;-70
2022/05/07 09:47:36;;;;;;;11.47;10.07;;;18.80;89.30;;;;;;5079680;28;20304;-70
2022/05/07 09:58:22;;;;;;;8.00;7.20;;;19.10;88.30;;;;;;5089759;28;20304;-71
2022/05/07 10:01:07;;;;;;;9.53;7.30;;;19.10;88.30;;;;;;5077939;28;20274;-72
2022/05/07 10:03:42;;;;;;;7.47;6.47;;;19.20;86.90;;;;;;5078793;28;20213;-70
2022/05/07 10:06:28;;;;;;;8.47;6.80;;;19.20;85.50;;;;;;5064383;28;20210;-70
2022/05/07 10:09:14;;;;;;;10.43;6.00;;;19.20;87.70;;;;;;5076922;28;20674;-73
2022/05/07 10:11:42;;;;;;;11.10;7.17;;;19.30;86.80;;;;;;5080232;28;20219;-70
2022/05/07 10:14:09;;;;;;;9.53;7.37;;;19.40;86.60;;;;;;5075474;28;20255;-71
2022/05/07 10:16:37;;;;;;;9.23;6.73;;;19.50;87.40;;;;;;5096195;28;20199;-71
2022/05/07 10:19:10;;;;;;;7.73;6.13;;;19.60;85.70;;;;;;5068006;28;20548;-70
2022/05/07 10:21:38;;;;;;;9.10;5.63;;;19.80;85.80;;;;;;5100222;28;20266;-71
2022/05/07 10:24:05;;;;;;;5.77;5.03;;;19.90;84.80;;;;;;5078695;28;20214;-71
2022/05/07 10:27:25;;;;;;;7.97;5.83;;;20.00;82.70;;;;;;5083480;28;20195;-71
2022/05/07 10:30:03;;;;;;;9.03;6.30;;;20.10;83.80;;;;;;5084178;28;20203;-70
2022/05/07 10:32:41;;;;;;;5.13;4.27;;;20.10;81.80;;;;;;5082752;28;20198;-70
2022/05/07 10:35:10;;;;;;;8.73;5.63;;;20.10;80.40;;;;;;5087995;28;20662;-70
2022/05/07 10:37:43;;;;;;;12.03;5.70;;;20.10;81.00;;;;;;5065013;28;20294;-71
2022/05/07 10:40:11;;;;;;;7.10;5.53;;;20.10;81.90;;;;;;5081006;28;20191;-71
2022/05/07 10:42:39;;;;;;;9.97;5.00;;;20.10;81.60;;;;;;5086892;28;20729;-71
2022/05/07 10:45:20;;;;;;;7.70;4.60;;;20.10;82.50;;;;;;5072771;28;20206;-71
2022/05/07 10:47:54;;;;;;;7.47;5.23;;;20.10;81.70;;;;;;5078839;28;20241;-70
2022/05/07 10:50:38;;;;;;;8.43;5.47;;;20.10;80.40;;;;;;5100500;28;20202;-71
2022/05/07 10:53:05;;;;;;;8.30;5.57;;;20.10;80.50;;;;;;5063289;28;20222;-71
2022/05/07 10:55:33;;;;;;;11.63;5.00;;;20.20;81.10;;;;;;5088094;28;20213;-70
2022/05/07 10:58:01;;;;;;;8.80;4.30;;;20.20;82.60;;;;;;5094475;28;20204;-70
2022/05/07 11:00:29;;;;;;;5.30;4.30;;;20.30;80.60;;;;;;5070521;28;20214;-70
2022/05/07 11:03:00;;;;;;;6.53;4.77;;;20.50;81.90;;;;;;5063127;28;20212;-70
2022/05/07 11:05:35;;;;;;;5.17;4.27;;;20.50;80.80;;;;;;5088589;28;20206;-70
2022/05/07 11:08:03;;;;;;;8.33;4.53;;;20.50;80.70;;;;;;5079769;28;20247;-70
2022/05/07 11:10:30;;;;;;;10.47;5.87;;;20.60;79.80;;;;;;5100071;28;21049;-70
2022/05/07 11:13:08;;;;;;;6.80;5.00;;;20.60;79.80;;;;;;5071634;28;20220;-71
2022/05/07 11:15:36;;;;;;;7.43;5.03;;;20.60;81.00;;;;;;5092907;28;20205;-71
2022/05/07 11:18:14;;;;;;;6.13;4.17;;;20.60;78.70;;;;;;5075212;28;20216;-71
2022/05/07 11:20:43;;;;;;;5.70;4.63;;;20.60;79.20;;;;;;5108274;28;20222;-71
2022/05/07 11:23:14;;;;;;;8.30;5.23;;;20.60;80.30;;;;;;5096638;28;20242;-71
2022/05/07 11:25:46;;;;;;;6.73;4.63;;;20.60;79.20;;;;;;5088165;28;20225;-71
2022/05/07 11:28:14;;;;;;;6.37;4.43;;;20.60;78.80;;;;;;5085627;28;20224;-71
2022/05/07 11:30:50;;;;;;;9.93;4.80;;;20.60;78.50;;;;;;5091771;28;20211;-71
2022/05/07 11:33:25;;;;;;;7.13;4.27;;;20.70;78.20;;;;;;5066963;28;20294;-71
2022/05/07 11:36:07;;;;;;;4.47;3.97;;;20.70;81.10;;;;;;5078689;28;20285;-71
2022/05/07 11:38:36;;;;;;;5.97;4.10;;;20.70;79.60;;;;;;5081575;28;20205;-71
2022/05/07 11:41:12;;;;;;;8.23;4.00;;;20.90;79.00;;;;;;5075022;28;20211;-71
2022/05/07 11:46:52;;;;;;;5.37;3.67;;;21.20;79.00;;;;;;5084078;28;20607;-71
2022/05/07 11:49:36;;;;;;;9.23;4.63;;;21.30;76.70;;;;;;5074423;28;20234;-71
2022/05/07 11:52:08;;;;;;;5.57;4.40;;;21.20;76.40;;;;;;5070846;28;20243;-71
2022/05/07 11:54:35;;;;;;;8.67;4.67;;;21.10;78.10;;;;;;5080371;28;20596;-71
2022/05/07 11:57:03;;;;;;;9.00;4.53;;;21.10;76.70;;;;;;5071076;28;20225;-71
2022/05/07 11:59:43;;;;;;;6.13;3.87;;;21.00;76.70;;;;;;5096432;28;20633;-71
2022/05/07 12:02:10;;;;;;;5.73;3.83;;;20.90;76.00;;;;;;5098133;28;20664;-71
2022/05/07 12:04:37;;;;;;;5.37;4.43;;;20.80;75.60;;;;;;5089496;28;20219;-71
2022/05/07 12:07:04;;;;;;;6.10;3.70;;;20.80;77.80;;;;;;5070500;28;20215;-71
2022/05/07 12:09:36;;;;;;;3.83;2.97;;;20.80;77.20;;;;;;5084555;28;20213;-71
2022/05/07 12:12:05;;;;;;;6.10;3.57;;;20.80;75.00;;;;;;5069300;28;20311;-71
2022/05/07 12:14:32;;;;;;;6.93;3.57;;;20.90;75.30;;;;;;5081328;28;20665;-71
2022/05/07 12:19:47;;;;;;;4.70;2.77;;;21.20;74.50;;;;;;5069227;28;20304;-71
2022/05/07 12:30:33;;;;;;;8.50;3.30;;;21.40;73.00;;;;;;5088633;28;20199;-71
2022/05/07 12:33:01;;;;;;;5.40;3.47;;;21.20;71.80;;;;;;5087846;28;20207;-71
2022/05/07 12:35:28;;;;;;;4.37;3.57;;;21.10;72.00;;;;;;5073908;28;20237;-71
2022/05/07 12:37:55;;;;;;;6.43;3.80;;;21.00;73.40;;;;;;5083946;28;20210;-71
2022/05/07 12:40:22;;;;;;;9.00;5.03;;;20.90;74.70;;;;;;5077373;28;20292;-71
2022/05/07 12:42:49;;;;;;;6.37;4.37;;;20.90;75.40;;;;;;5081660;28;20215;-71
2022/05/07 12:45:16;;;;;;;6.67;4.40;;;20.80;74.70;;;;;;5062739;28;20215;-71
2022/05/07 12:47:43;;;;;;;5.97;4.80;;;20.70;74.60;;;;;;5096654;28;20212;-71
2022/05/07 12:50:10;;;;;;;6.37;4.13;;;20.60;75.70;;;;;;5105896;28;20212;-71
2022/05/07 12:52:37;;;;;;;10.00;4.67;;;20.60;76.10;;;;;;5095621;28;20523;-72
2022/05/07 12:55:05;;;;;;;7.07;4.33;;;20.60;76.40;;;;;;5062515;28;20221;-72
2022/05/07 12:57:33;;;;;;;6.27;4.40;;;20.60;76.60;;;;;;5078671;28;20216;-72
2022/05/07 13:00:00;;;;;;;5.43;4.43;;;20.80;75.90;;;;;;5068457;28;20212;-71
2022/05/07 13:02:30;;;;;;;8.93;4.90;;;21.00;75.40;;;;;;5077790;28;20193;-71
2022/05/07 13:04:57;;;;;;;6.07;3.97;;;21.30;77.70;;;;;;5070850;28;20323;-71
2022/05/07 13:07:24;;;;;;;4.90;4.40;;;21.50;73.80;;;;;;5074826;28;20300;-71
2022/05/07 13:09:51;;;;;;;6.53;3.97;;;21.60;74.20;;;;;;5080436;28;20228;-71
2022/05/07 13:12:20;;;;;;;7.30;4.30;;;21.70;73.40;;;;;;5059786;28;20249;-72
2022/05/07 13:14:57;;;;;;;4.67;4.03;;;21.70;71.60;;;;;;5087308;28;20210;-71
2022/05/07 13:17:25;;;;;;;6.53;3.83;;;21.80;74.20;;;;;;5106609;28;20211;-71
2022/05/07 13:19:53;;;;;;;5.60;2.77;;;21.80;73.40;;;;;;5080875;28;20245;-71
2022/05/07 13:22:20;;;;;;;8.07;3.10;;;21.80;70.30;;;;;;5097312;28;20236;-71
2022/05/07 13:24:47;;;;;;;4.47;3.77;;;21.80;68.30;;;;;;5087149;28;20201;-71
2022/05/07 13:27:16;;;;;;;6.97;4.17;;;21.80;70.50;;;;;;5073587;28;20630;-71
2022/05/07 13:29:43;;;;;;;8.37;4.40;;;21.80;72.10;;;;;;5074696;28;20613;-71
2022/05/07 13:32:10;;;;;;;8.50;5.17;;;21.90;72.80;;;;;;5073119;28;20250;-71
2022/05/07 13:34:38;;;;;;;7.53;3.67;;;21.90;72.50;;;;;;5082521;28;20270;-71
2022/05/07 13:37:05;;;;;;;7.27;3.63;;;21.80;71.30;;;;;;5073030;28;20542;-72